Time;durP1;ratioP1;P1;durP2;ratioP2;P2;SDS_P1;SDS_P2;PMS_P1;PMS_P2;Temp;Humidity;BMP_temperature;BMP_pressure;BME280_temperature;BME280_humidity;BME280_pressure;Samples;Min_cycle;Max_cycle;Signal;HPM_P1;HPM_P2
2021/07/05 00:00:28;;;;;;;;;26.25;23.75;;;;;19.13;78.90;98918.75;3486007;41;14116;-64
2021/07/05 00:02:55;;;;;;;;;27.75;23.00;;;;;19.23;79.05;98912.13;3493036;41;14134;-62
2021/07/05 00:05:23;;;;;;;;;19.25;16.50;;;;;18.97;79.83;98912.25;3492349;41;14947;-63
2021/07/05 00:07:51;;;;;;;;;24.00;20.50;;;;;18.80;81.12;98913.22;3497088;41;14115;-62
2021/07/05 00:10:24;;;;;;;;;26.00;25.50;;;;;19.10;79.75;98921.81;3494478;41;14095;-62
2021/07/05 00:12:52;;;;;;;;;26.50;23.25;;;;;19.13;79.53;98918.75;3495129;41;14182;-61
2021/07/05 00:15:24;;;;;;;;;25.00;23.75;;;;;19.40;78.88;98912.97;3496225;41;14335;-62
2021/07/05 00:17:57;;;;;;;;;21.75;20.25;;;;;19.37;78.47;98920.63;3489650;41;14144;-62
2021/07/05 00:20:26;;;;;;;;;21.75;21.00;;;;;19.19;79.17;98923.50;3495855;41;14281;-61
2021/07/05 00:22:54;;;;;;;;;23.00;20.00;;;;;19.36;78.63;98919.78;3503489;40;14118;-61
2021/07/05 00:25:22;;;;;;;;;22.75;22.75;;;;;19.02;79.89;98915.31;3494602;41;14141;-61
2021/07/05 00:27:50;;;;;;;;;27.50;25.50;;;;;18.78;81.59;98915.28;3490998;41;14093;-61
2021/07/05 00:30:18;;;;;;;;;26.50;24.25;;;;;18.63;82.26;98918.59;3484346;41;14133;-61
2021/07/05 00:32:47;;;;;;;;;28.00;23.50;;;;;18.88;80.89;98916.00;3491925;41;14367;-61
2021/07/05 00:35:17;;;;;;;;;24.25;20.25;;;;;18.94;80.80;98912.59;3485814;41;14227;-61
2021/07/05 00:37:46;;;;;;;;;25.25;23.50;;;;;18.75;81.97;98912.91;3492919;41;14197;-61
2021/07/05 00:40:15;;;;;;;;;25.00;25.00;;;;;18.61;82.64;98914.31;3488765;41;14331;-61
2021/07/05 00:42:44;;;;;;;;;25.00;23.75;;;;;18.59;82.79;98910.94;3494386;41;14185;-61
2021/07/05 00:45:15;;;;;;;;;22.00;21.75;;;;;18.58;83.05;98909.22;3493606;41;14781;-62
2021/07/05 00:47:42;;;;;;;;;22.25;21.75;;;;;18.54;82.77;98908.72;3500259;41;14718;-64
2021/07/05 00:50:13;;;;;;;;;23.00;21.75;;;;;18.57;83.08;98912.97;3495216;41;14748;-63
2021/07/05 00:52:42;;;;;;;;;26.75;24.00;;;;;18.56;83.11;98906.69;3499885;41;14785;-62
2021/07/05 00:55:13;;;;;;;;;24.00;22.00;;;;;18.75;82.37;98910.19;3492071;41;14264;-62
2021/07/05 00:57:40;;;;;;;;;26.00;24.75;;;;;18.63;82.67;98907.72;3494613;41;14155;-63
2021/07/05 01:00:13;;;;;;;;;26.00;24.75;;;;;18.48;83.78;98919.38;3486530;41;14768;-62
2021/07/05 01:02:41;;;;;;;;;26.25;25.25;;;;;19.02;81.88;98918.03;3493080;41;14429;-63
2021/07/05 01:05:11;;;;;;;;;26.50;23.50;;;;;19.12;81.11;98911.63;3494968;41;14291;-62
2021/07/05 01:07:38;;;;;;;;;24.00;22.50;;;;;19.35;80.20;98912.63;3496849;41;14388;-62
2021/07/05 01:10:08;;;;;;;;;27.00;21.00;;;;;19.24;80.00;98912.97;3491549;41;14118;-62
2021/07/05 01:12:38;;;;;;;;;28.25;24.00;;;;;18.75;82.15;98911.03;3492038;41;14166;-62
2021/07/05 01:15:09;;;;;;;;;23.50;22.75;;;;;18.78;82.00;98909.84;3495650;41;14166;-62
2021/07/05 01:17:37;;;;;;;;;27.00;24.25;;;;;18.74;82.71;98905.69;3497792;40;14371;-63
2021/07/05 01:20:08;;;;;;;;;23.50;23.25;;;;;18.97;81.47;98914.13;3494474;41;14205;-63
2021/07/05 01:22:36;;;;;;;;;27.25;23.75;;;;;19.02;81.36;98918.03;3499138;41;14854;-62
2021/07/05 01:25:08;;;;;;;;;26.00;22.25;;;;;18.59;83.17;98911.78;3495135;41;14163;-62
2021/07/05 01:27:36;;;;;;;;;25.75;24.25;;;;;18.61;83.13;98909.72;3494949;41;16585;-63
2021/07/05 01:30:06;;;;;;;;;24.50;21.25;;;;;18.46;83.93;98911.41;3504380;40;14706;-63
2021/07/05 01:32:34;;;;;;;;;21.25;19.50;;;;;18.34;84.07;98913.53;3502590;40;14674;-62
2021/07/05 01:35:01;;;;;;;;;24.00;22.25;;;;;18.61;83.60;98915.16;3489679;40;14168;-63
2021/07/05 01:37:29;;;;;;;;;27.75;23.50;;;;;18.42;84.31;98920.88;3488415;41;14728;-63
2021/07/05 01:39:56;;;;;;;;;24.75;21.25;;;;;18.46;84.01;98922.28;3492279;41;14170;-63
2021/07/05 01:42:24;;;;;;;;;25.25;23.25;;;;;18.65;83.78;98918.44;3487936;41;14160;-62
2021/07/05 01:44:51;;;;;;;;;26.00;24.75;;;;;18.88;82.46;98924.16;3484119;41;14193;-62
2021/07/05 01:47:19;;;;;;;;;23.75;21.25;;;;;18.44;83.60;98924.31;3500133;41;14202;-63
2021/07/05 01:49:46;;;;;;;;;23.25;23.00;;;;;18.47;84.08;98920.41;3493824;41;14252;-63
2021/07/05 01:52:15;;;;;;;;;22.25;21.50;;;;;18.32;85.03;98926.44;3502031;41;14303;-63
2021/07/05 01:54:42;;;;;;;;;23.00;22.00;;;;;18.58;83.70;98928.25;3493523;41;14163;-64
2021/07/05 01:57:24;;;;;;;;;26.00;25.75;;;;;18.63;83.47;98923.19;3490459;41;14207;-62
2021/07/05 01:59:58;;;;;;;;;22.00;22.00;;;;;18.38;85.15;98930.41;3486167;41;14189;-61
2021/07/05 02:02:27;;;;;;;;;26.50;23.75;;;;;18.34;85.09;98931.72;3486646;41;16639;-63
2021/07/05 02:04:55;;;;;;;;;25.00;21.75;;;;;18.53;84.76;98928.75;3490140;41;14154;-63
2021/07/05 02:07:23;;;;;;;;;27.25;21.50;;;;;18.57;84.74;98934.72;3501284;41;14995;-63
2021/07/05 02:09:50;;;;;;;;;24.50;23.00;;;;;18.65;84.29;98927.44;3500311;41;14206;-64
2021/07/05 02:12:18;;;;;;;;;28.75;23.00;;;;;19.08;81.73;98930.97;3492173;41;15393;-62
2021/07/05 02:14:46;;;;;;;;;30.75;24.75;;;;;18.78;82.75;98926.16;3496976;41;14400;-63
2021/07/05 02:17:13;;;;;;;;;31.75;24.50;;;;;18.81;82.80;98928.53;3504432;40;14187;-63
2021/07/05 02:19:41;;;;;;;;;24.00;22.25;;;;;18.99;82.21;98934.72;3492691;41;14213;-62
2021/07/05 02:22:09;;;;;;;;;23.75;21.50;;;;;18.55;83.36;98934.03;3501065;41;14097;-62
2021/07/05 02:24:37;;;;;;;;;27.75;22.25;;;;;18.14;85.84;98936.53;3500033;40;14618;-63
2021/07/05 02:27:05;;;;;;;;;25.00;24.25;;;;;18.24;85.72;98941.88;3503032;41;14373;-62
2021/07/05 02:29:33;;;;;;;;;27.25;25.50;;;;;18.45;84.67;98942.31;3493588;41;14386;-63
2021/07/05 02:32:00;;;;;;;;;22.75;21.75;;;;;18.24;85.07;98944.59;3493300;41;14371;-62
2021/07/05 02:34:28;;;;;;;;;24.00;23.00;;;;;18.26;85.23;98943.41;3485898;41;14226;-62
2021/07/05 02:36:55;;;;;;;;;26.75;26.75;;;;;18.36;84.69;98948.72;3487110;41;14196;-61
2021/07/05 02:39:23;;;;;;;;;26.00;23.00;;;;;18.31;85.21;98949.22;3484852;41;14191;-62
2021/07/05 02:41:51;;;;;;;;;22.50;22.25;;;;;18.55;83.90;98942.19;3492190;41;14272;-62
2021/07/05 02:44:19;;;;;;;;;26.00;24.75;;;;;18.81;83.20;98937.53;3494335;41;14129;-62
2021/07/05 02:46:46;;;;;;;;;26.00;24.00;;;;;18.75;82.82;98945.53;3497365;41;14334;-62
2021/07/05 02:49:14;;;;;;;;;28.75;22.75;;;;;18.88;81.97;98948.63;3488729;40;14395;-64
2021/07/05 02:51:42;;;;;;;;;23.50;22.25;;;;;18.80;82.44;98949.47;3493090;41;14205;-63
2021/07/05 02:54:09;;;;;;;;;24.50;21.75;;;;;19.23;80.75;98952.94;3489311;41;14665;-61
2021/07/05 02:56:36;;;;;;;;;26.00;22.50;;;;;18.69;82.14;98952.41;3493760;41;14312;-62
2021/07/05 02:59:04;;;;;;;;;21.75;21.25;;;;;19.07;80.94;98950.19;3495468;41;14369;-61
2021/07/05 03:01:31;;;;;;;;;21.00;19.50;;;;;18.81;81.69;98953.03;3493066;41;14172;-61
2021/07/05 03:03:59;;;;;;;;;23.50;22.50;;;;;18.89;81.60;98949.47;3491011;41;14195;-60
2021/07/05 03:06:26;;;;;;;;;24.75;20.50;;;;;19.17;80.11;98955.47;3488869;41;14123;-60
2021/07/05 03:08:53;;;;;;;;;26.00;20.00;;;;;19.02;80.64;98953.41;3505549;40;14294;-61
2021/07/05 03:11:21;;;;;;;;;27.25;22.00;;;;;18.88;80.92;98959.50;3495576;40;14092;-60
2021/07/05 03:13:48;;;;;;;;;24.75;21.75;;;;;18.83;80.84;98956.44;3491672;41;14636;-61
2021/07/05 03:16:16;;;;;;;;;23.00;21.25;;;;;18.88;81.44;98959.50;3495670;40;14305;-61
2021/07/05 03:18:43;;;;;;;;;29.00;23.50;;;;;18.69;81.28;98962.44;3488518;41;14108;-61
2021/07/05 03:21:11;;;;;;;;;21.00;21.00;;;;;18.74;81.58;98968.25;3490583;41;14155;-60
2021/07/05 03:23:38;;;;;;;;;20.00;18.25;;;;;18.87;80.54;98963.22;3495223;41;14144;-61
2021/07/05 03:26:05;;;;;;;;;21.00;18.25;;;;;18.82;80.46;98966.44;3495727;41;14097;-61
2021/07/05 03:28:33;;;;;;;;;21.50;19.75;;;;;18.95;80.19;98965.97;3501457;40;14096;-61
2021/07/05 03:31:00;;;;;;;;;22.00;19.25;;;;;18.95;80.28;98971.41;3495462;41;14109;-60
2021/07/05 03:33:28;;;;;;;;;21.00;19.25;;;;;19.13;79.19;98978.59;3488183;41;14271;-61
2021/07/05 03:35:55;;;;;;;;;21.25;20.75;;;;;19.28;79.37;98974.22;3491264;41;14165;-61
2021/07/05 03:38:22;;;;;;;;;23.75;22.25;;;;;19.20;78.73;98977.78;3492410;41;14085;-61
2021/07/05 03:40:50;;;;;;;;;20.75;19.00;;;;;19.34;79.04;98978.97;3494270;41;14296;-60
2021/07/05 03:43:18;;;;;;;;;23.00;19.75;;;;;19.47;78.31;98971.16;3497256;40;14096;-60
2021/07/05 03:45:45;;;;;;;;;22.25;21.00;;;;;19.36;78.43;98968.78;3494476;41;14315;-61
2021/07/05 03:48:13;;;;;;;;;24.50;20.25;;;;;19.30;78.72;98969.47;3495857;41;14187;-61
2021/07/05 03:50:41;;;;;;;;;19.50;16.75;;;;;19.40;78.76;98975.56;3497313;41;14300;-61
2021/07/05 03:53:08;;;;;;;;;22.25;15.75;;;;;19.14;78.97;98973.00;3504827;40;14081;-60
2021/07/05 03:55:37;;;;;;;;;22.00;19.00;;;;;19.65;77.56;98971.00;3494071;41;14108;-61
2021/07/05 03:58:06;;;;;;;;;22.00;21.25;;;;;19.41;78.05;98977.31;3495229;41;14120;-61
2021/07/05 04:00:37;;;;;;;;;22.75;19.75;;;;;19.32;78.19;98975.56;3495377;41;14083;-61
2021/07/05 04:03:05;;;;;;;;;22.75;20.00;;;;;19.52;77.76;98981.56;3495106;41;14109;-61
2021/07/05 04:05:33;;;;;;;;;22.00;20.00;;;;;19.58;77.04;98983.59;3494104;41;14100;-61
2021/07/05 04:08:02;;;;;;;;;20.50;17.50;;;;;19.77;76.89;98985.16;3502400;41;14151;-61
2021/07/05 04:10:31;;;;;;;;;19.00;18.00;;;;;19.62;77.41;98984.97;3497508;40;15042;-61
2021/07/05 04:12:58;;;;;;;;;20.75;18.00;;;;;19.53;77.33;98986.81;3494703;41;14286;-61
2021/07/05 04:15:26;;;;;;;;;20.50;19.00;;;;;19.68;76.89;98983.47;3500783;40;14103;-61
2021/07/05 04:17:54;;;;;;;;;21.50;18.00;;;;;19.68;76.69;98983.47;3492263;41;15222;-60
2021/07/05 04:20:24;;;;;;;;;21.25;17.50;;;;;19.58;76.55;98993.66;3495752;41;14081;-61
2021/07/05 04:22:52;;;;;;;;;21.00;21.00;;;;;19.80;75.47;98982.13;3495442;40;14297;-61
2021/07/05 04:25:22;;;;;;;;;19.25;18.00;;;;;19.79;75.48;98979.56;3498791;40;14174;-60
2021/07/05 04:27:52;;;;;;;;;18.75;17.00;;;;;20.16;75.14;98981.72;3494091;41;14128;-61
2021/07/05 04:30:26;;;;;;;;;22.50;18.75;;;;;20.29;74.01;98986.63;3485460;41;14122;-60
2021/07/05 04:32:54;;;;;;;;;18.00;17.25;;;;;20.27;74.47;98980.50;3493516;41;14108;-61
2021/07/05 04:35:22;;;;;;;;;21.00;20.25;;;;;20.25;74.20;98982.53;3494768;41;14113;-61
2021/07/05 04:37:52;;;;;;;;;17.50;16.75;;;;;20.27;74.06;98984.06;3490101;41;14141;-61
2021/07/05 04:40:27;;;;;;;;;18.50;18.50;;;;;20.28;74.07;98990.41;3485382;41;14107;-60
2021/07/05 04:42:55;;;;;;;;;18.75;17.75;;;;;20.64;73.25;98992.69;3488528;41;13674;-61
2021/07/05 04:45:27;;;;;;;;;18.50;17.50;;;;;20.32;74.07;98992.59;3488193;41;13631;-61
2021/07/05 04:48:02;;;;;;;;;19.75;19.75;;;;;20.23;73.77;98993.63;3499592;41;13435;-61
2021/07/05 04:50:30;;;;;;;;;21.50;19.00;;;;;20.26;74.02;98992.44;3502828;40;13436;-59
2021/07/05 04:52:59;;;;;;;;;24.25;19.50;;;;;20.19;74.46;98992.28;3493558;41;14077;-60
2021/07/05 04:55:28;;;;;;;;;20.00;18.00;;;;;20.18;74.28;98996.03;3490749;41;14094;-61
2021/07/05 04:57:56;;;;;;;;;17.00;17.00;;;;;20.42;74.04;98999.72;3493236;41;13633;-60
2021/07/05 05:00:31;;;;;;;;;13.25;13.25;;;;;20.15;73.65;99007.28;3495036;41;14104;-60
2021/07/05 05:03:04;;;;;;;;;18.50;17.75;;;;;20.34;74.03;99009.63;3491115;41;14091;-61
2021/07/05 05:05:33;;;;;;;;;24.25;21.00;;;;;20.38;73.35;99002.81;3491796;41;14132;-62
2021/07/05 05:08:06;;;;;;;;;21.75;18.00;;;;;20.23;73.81;99004.53;3490419;41;14605;-60
2021/07/05 05:10:33;;;;;;;;;18.25;17.00;;;;;20.51;72.79;99006.84;3493733;41;14898;-61
2021/07/05 05:13:01;;;;;;;;;14.75;13.75;;;;;20.57;72.92;99006.19;3485703;40;14127;-61
2021/07/05 05:15:29;;;;;;;;;20.00;17.25;;;;;20.58;72.55;99007.88;3492294;41;13443;-61
2021/07/05 05:17:56;;;;;;;;;24.00;20.00;;;;;20.13;73.60;99009.31;3493929;41;13449;-61
2021/07/05 05:20:25;;;;;;;;;19.50;18.50;;;;;20.08;73.85;99014.44;3487556;41;13480;-64
2021/07/05 05:22:53;;;;;;;;;18.50;16.25;;;;;20.16;73.53;99022.59;3493001;40;14319;-61
2021/07/05 05:25:22;;;;;;;;;17.75;17.75;;;;;20.29;73.66;99024.81;3483494;41;14292;-62
2021/07/05 05:27:50;;;;;;;;;18.50;16.75;;;;;20.19;73.92;99022.25;3486170;41;13619;-60
2021/07/05 05:30:20;;;;;;;;;17.50;17.50;;;;;20.24;74.04;99024.47;3490561;41;14085;-61
2021/07/05 05:32:49;;;;;;;;;21.25;18.50;;;;;20.26;73.23;99026.00;3493339;41;14292;-61
2021/07/05 05:35:20;;;;;;;;;29.25;26.75;;;;;20.46;73.05;99022.88;3498637;41;14175;-59
2021/07/05 05:37:50;;;;;;;;;29.50;28.75;;;;;20.30;72.58;99026.50;3494368;41;14195;-60
2021/07/05 05:40:18;;;;;;;;;41.50;33.00;;;;;20.40;72.83;99027.16;3496348;41;14179;-61
2021/07/05 05:42:45;;;;;;;;;26.50;24.75;;;;;20.44;71.91;99033.13;3490928;41;14204;-61
2021/07/05 05:45:14;;;;;;;;;16.50;16.50;;;;;20.35;71.86;99024.97;3489086;41;14696;-61
2021/07/05 05:47:42;;;;;;;;;19.50;16.25;;;;;20.38;72.01;99030.09;3484486;41;14196;-60
2021/07/05 05:50:11;;;;;;;;;21.25;16.25;;;;;20.56;71.46;99034.47;3494218;41;14085;-60
2021/07/05 05:52:39;;;;;;;;;18.00;18.00;;;;;20.69;71.35;99032.06;3487876;41;13472;-61
2021/07/05 05:55:09;;;;;;;;;18.00;16.50;;;;;20.44;71.58;99033.13;3490185;41;14114;-60
2021/07/05 05:57:38;;;;;;;;;18.50;16.25;;;;;20.28;71.68;99032.13;3493593;41;13503;-60
2021/07/05 06:00:18;;;;;;;;;18.00;17.25;;;;;20.33;71.40;99035.19;3500017;41;14262;-60
2021/07/05 06:02:47;;;;;;;;;21.25;16.25;;;;;20.31;70.92;99028.22;3485743;41;13611;-60
2021/07/05 06:05:16;;;;;;;;;19.50;17.50;;;;;20.43;71.27;99042.31;3485352;41;14120;-61
2021/07/05 06:07:49;;;;;;;;;20.50;19.50;;;;;20.51;70.62;99036.84;3488535;41;14275;-60
2021/07/05 06:10:21;;;;;;;;;20.50;17.50;;;;;20.43;70.66;99039.59;3493728;41;13772;-60
2021/07/05 06:12:49;;;;;;;;;16.50;16.50;;;;;20.64;71.03;99045.38;3492810;41;14933;-60
2021/07/05 06:15:19;;;;;;;;;17.75;15.50;;;;;20.68;70.18;99044.00;3488691;41;14300;-60
2021/07/05 06:17:49;;;;;;;;;14.50;14.50;;;;;20.71;70.71;99048.25;3492151;41;13474;-61
2021/07/05 06:20:18;;;;;;;;;17.00;14.75;;;;;20.83;70.45;99053.16;3493026;41;13427;-60
2021/07/05 06:23:07;;;;;;;;;16.75;16.50;;;;;20.76;70.10;99049.44;3494373;41;14109;-61
2021/07/05 06:25:35;;;;;;;;;15.75;14.00;;;;;20.77;69.64;99048.44;3492977;41;14289;-62
2021/07/05 06:28:04;;;;;;;;;19.00;18.75;;;;;20.88;69.46;99051.78;3488743;41;13461;-61
2021/07/05 06:30:31;;;;;;;;;15.00;14.75;;;;;21.04;69.50;99062.66;3501813;41;14100;-61
2021/07/05 06:32:59;;;;;;;;;15.75;15.75;;;;;21.05;68.97;99059.72;3484676;41;13423;-61
2021/07/05 06:35:27;;;;;;;;;20.75;15.25;;;;;21.35;68.68;99059.06;3502068;40;13407;-61
2021/07/05 06:37:54;;;;;;;;;21.00;19.00;;;;;21.25;68.39;99059.31;3492328;41;13196;-60
2021/07/05 06:40:22;;;;;;;;;16.25;15.25;;;;;21.15;69.49;99059.53;3491388;41;13576;-60
2021/07/05 06:42:49;;;;;;;;;19.50;18.50;;;;;21.31;68.75;99063.22;3486028;41;13705;-60
2021/07/05 06:45:17;;;;;;;;;15.75;15.75;;;;;21.42;68.21;99062.81;3485961;41;13640;-60
2021/07/05 06:47:44;;;;;;;;;14.75;14.75;;;;;21.63;67.83;99068.50;3486012;41;13026;-60
2021/07/05 06:50:12;;;;;;;;;16.25;16.25;;;;;21.48;67.90;99075.75;3487790;41;13505;-60
2021/07/05 06:52:40;;;;;;;;;17.00;15.50;;;;;21.40;68.07;99073.91;3495224;41;14298;-60
2021/07/05 06:55:08;;;;;;;;;20.75;17.00;;;;;21.46;67.67;99077.84;3491403;41;13519;-60
2021/07/05 06:57:37;;;;;;;;;17.25;15.00;;;;;21.30;68.02;99078.75;3495274;41;13410;-60
2021/07/05 07:00:18;;;;;;;;;20.75;15.75;;;;;21.44;68.44;99075.28;3493895;41;13160;-61
2021/07/05 07:02:47;;;;;;;;;17.75;16.25;;;;;21.51;68.82;99080.84;3494396;41;13247;-60
2021/07/05 07:05:17;;;;;;;;;19.00;17.00;;;;;21.58;68.02;99076.38;3492186;41;13317;-60
2021/07/05 07:07:48;;;;;;;;;17.50;17.50;;;;;21.44;68.53;99086.19;3495162;41;13233;-60
2021/07/05 07:10:18;;;;;;;;;17.25;16.00;;;;;21.68;68.39;99081.63;3493256;41;14104;-60
2021/07/05 07:12:50;;;;;;;;;17.75;15.50;;;;;21.48;68.32;99082.09;3486088;41;13039;-60
2021/07/05 07:15:39;;;;;;;;;18.75;17.00;;;;;21.56;68.49;99093.97;3484909;41;13046;-60
2021/07/05 07:18:32;;;;;;;;;18.75;17.00;;;;;21.48;68.82;99078.50;3485769;41;13062;-62
2021/07/05 07:20:55;;;;;;;;;19.00;17.75;;;;;21.80;68.21;99103.91;3487784;41;13547;-59
2021/07/05 07:23:23;;;;;;;;;20.00;17.75;;;;;21.72;67.94;99096.59;3490144;41;13274;-60
2021/07/05 07:25:51;;;;;;;;;18.25;16.00;;;;;21.72;68.52;99098.50;3493935;41;13049;-60
2021/07/05 07:28:18;;;;;;;;;22.25;19.00;;;;;22.13;67.40;99099.06;3495956;41;13157;-60
2021/07/05 07:30:46;;;;;;;;;18.25;17.75;;;;;22.09;67.17;99108.66;3497973;40;13644;-60
2021/07/05 07:33:16;;;;;;;;;20.25;16.25;;;;;21.95;67.28;99096.63;3492020;41;13088;-60
2021/07/05 07:35:43;;;;;;;;;21.50;17.50;;;;;22.08;67.04;99099.59;3495082;41;13689;-59
2021/07/05 07:38:11;;;;;;;;;16.00;16.00;;;;;22.23;67.49;99104.31;3492358;41;12891;-61
2021/07/05 07:40:41;;;;;;;;;21.50;20.00;;;;;22.09;67.41;99101.31;3484821;41;12984;-60
2021/07/05 07:43:08;;;;;;;;;20.75;17.50;;;;;22.23;67.44;99104.31;3493180;41;12826;-60
2021/07/05 07:45:35;;;;;;;;;17.75;16.00;;;;;22.19;67.31;99101.09;3502605;41;12321;-61
2021/07/05 07:48:03;;;;;;;;;18.25;16.00;;;;;22.13;68.03;99099.91;3498058;41;12208;-61
2021/07/05 07:50:31;;;;;;;;;19.25;17.00;;;;;22.43;67.02;99108.22;3494640;41;12181;-61
2021/07/05 07:52:59;;;;;;;;;19.75;18.25;;;;;22.33;67.37;99108.50;3492228;41;13005;-60
2021/07/05 07:55:27;;;;;;;;;16.00;14.00;;;;;22.68;66.70;99105.28;3494645;41;12518;-61
2021/07/05 07:57:54;;;;;;;;;20.00;17.25;;;;;22.48;66.29;99107.66;3493679;41;12333;-61
2021/07/05 08:00:21;;;;;;;;;20.25;19.00;;;;;22.51;66.93;99110.03;3499901;41;12262;-61
2021/07/05 08:02:49;;;;;;;;;20.50;17.25;;;;;22.75;67.33;99114.44;3498270;41;12727;-61
2021/07/05 08:05:16;;;;;;;;;17.75;17.25;;;;;22.54;66.54;99115.16;3496738;41;12219;-60
2021/07/05 08:07:44;;;;;;;;;18.00;16.00;;;;;23.08;64.15;99108.63;3500735;40;12932;-60
2021/07/05 08:10:15;;;;;;;;;16.50;15.00;;;;;22.90;64.75;99120.75;3493900;41;12206;-60
2021/07/05 08:12:44;;;;;;;;;22.50;18.75;;;;;22.93;65.74;99120.41;3493508;41;11787;-60
2021/07/05 08:15:16;;;;;;;;;18.25;18.25;;;;;22.49;64.59;99110.25;3499638;41;11926;-60
2021/07/05 08:17:47;;;;;;;;;18.00;17.00;;;;;22.70;65.29;99114.16;3489941;41;11803;-61
2021/07/05 08:20:21;;;;;;;;;19.00;16.75;;;;;23.00;65.07;99120.50;3490234;41;12053;-61
2021/07/05 08:24:06;;;;;;;;;28.25;25.00;;;;;22.98;64.80;99115.22;3610093;39;17308;-64
2021/07/05 08:26:34;;;;;;;;;19.75;16.50;;;;;23.30;63.14;99118.63;3605771;39;12688;-64
2021/07/05 08:29:03;;;;;;;;;17.75;16.50;;;;;23.20;64.26;99112.59;3609886;39;11582;-64
2021/07/05 08:31:31;;;;;;;;;15.50;15.50;;;;;22.70;63.36;99117.72;3610391;39;11296;-63
2021/07/05 08:34:00;;;;;;;;;16.25;15.25;;;;;22.99;63.28;99111.47;3606577;39;11604;-64
2021/07/05 08:36:28;;;;;;;;;19.25;18.00;;;;;22.50;62.53;99106.44;3599301;39;11587;-66
2021/07/05 08:38:55;;;;;;;;;21.75;17.75;;;;;22.85;63.24;99100.47;3600335;39;11724;-62
2021/07/05 08:41:23;;;;;;;;;19.25;19.25;;;;;22.94;65.66;99105.66;3600195;39;11997;-63
2021/07/05 08:43:52;;;;;;;;;19.25;18.00;;;;;22.93;64.17;99111.31;3601518;39;12285;-64
2021/07/05 08:46:21;;;;;;;;;20.75;19.00;;;;;23.11;63.53;99097.28;3599254;39;12401;-64
2021/07/05 08:48:50;;;;;;;;;18.00;16.50;;;;;23.78;60.57;99108.06;3600830;39;12238;-62
2021/07/05 08:51:20;;;;;;;;;17.00;17.00;;;;;23.56;61.76;99107.13;3603877;39;11739;-63
2021/07/05 08:53:52;;;;;;;;;17.75;15.50;;;;;23.80;61.02;99105.13;3604651;39;11786;-65
2021/07/05 08:56:21;;;;;;;;;20.50;18.25;;;;;23.17;61.73;99091.03;3610861;39;11431;-64
2021/07/05 08:58:51;;;;;;;;;20.00;17.75;;;;;23.63;60.76;99093.53;3609518;39;12168;-69
2021/07/05 09:01:20;;;;;;;;;19.75;16.00;;;;;23.44;61.25;99090.34;3600557;39;11731;-63
2021/07/05 09:03:50;;;;;;;;;590.20;440.60;;;;;23.58;59.84;99096.00;3600850;39;11615;-63
2021/07/05 09:06:25;;;;;;;;;40.50;33.75;;;;;23.75;59.43;99091.13;3599447;39;10439;-62
2021/07/05 09:09:00;;;;;;;;;67.00;51.25;;;;;24.04;59.01;99091.06;3600246;39;14016;-65
2021/07/05 09:11:49;;;;;;;;;98.00;90.67;;;;;24.37;57.55;99095.13;3600370;39;14294;-64
2021/07/05 09:14:23;;;;;;;;;65.00;51.25;;;;;24.40;57.77;99092.84;3599671;39;10416;-63
2021/07/05 09:16:52;;;;;;;;;401.80;309.00;;;;;23.98;58.47;99090.97;3598753;39;14334;-65
2021/07/05 09:19:27;;;;;;;;;61.00;48.25;;;;;24.40;58.61;99100.22;3601234;39;10637;-61
2021/07/05 09:22:03;;;;;;;;;25.25;23.50;;;;;24.62;55.62;99104.66;3599986;39;14070;-65
2021/07/05 09:24:42;;;;;;;;;27.75;23.50;;;;;24.87;56.02;99101.47;3590783;39;11882;-63
2021/07/05 09:27:23;;;;;;;;;16.00;15.00;;;;;24.79;55.30;99098.88;3599642;39;12395;-67
2021/07/05 09:29:51;;;;;;;;;16.33;15.00;;;;;24.64;55.22;99102.56;3605715;39;10918;-65
2021/07/05 09:32:29;;;;;;;;;17.50;16.75;;;;;25.00;54.99;99114.44;3610585;39;10527;-67
2021/07/05 09:34:57;;;;;;;;;16.33;16.33;;;;;24.95;55.41;99110.38;3605053;39;10349;-70
2021/07/05 09:37:32;;;;;;;;;17.00;15.50;;;;;25.21;54.49;99113.53;3603214;39;10661;-68
2021/07/05 09:40:03;;;;;;;;;17.75;16.00;;;;;24.37;56.66;99119.84;3603339;39;11144;-65
2021/07/05 09:42:33;;;;;;;;;15.00;13.67;;;;;24.89;54.62;99115.84;3602456;39;10458;-66
2021/07/05 09:45:13;;;;;;;;;15.33;15.00;;;;;25.45;52.63;99115.75;3602486;39;10581;-64
2021/07/05 09:47:42;;;;;;;;;16.33;15.33;;;;;25.06;54.21;99114.44;3604494;39;10068;-66
2021/07/05 09:50:16;;;;;;;;;16.00;16.00;;;;;25.30;54.21;99121.38;3603962;39;10088;-68
2021/07/05 09:52:45;;;;;;;;;22.50;18.75;;;;;25.20;54.66;99123.69;3603566;39;10449;-65
2021/07/05 09:55:16;;;;;;;;;18.25;17.25;;;;;25.11;51.75;99125.69;3597914;39;10531;-71
2021/07/05 09:57:54;;;;;;;;;11.33;11.00;;;;;25.28;52.15;99125.41;3592958;40;10428;-67
2021/07/05 10:00:25;;;;;;;;;13.67;13.67;;;;;25.31;51.91;99119.50;3601374;39;10132;-67
2021/07/05 10:03:02;;;;;;;;;14.33;14.00;;;;;25.71;53.26;99119.66;3602405;39;10182;-68
2021/07/05 10:05:43;;;;;;;;;18.67;16.67;;;;;25.67;50.16;99126.63;3603654;39;9885;-64
2021/07/05 10:08:15;;;;;;;;;17.67;17.00;;;;;25.97;51.01;99133.53;3603582;39;10000;-67
2021/07/05 10:10:46;;;;;;;;;613.75;503.50;;;;;25.97;49.27;99129.94;3603537;39;10081;-65
2021/07/05 10:13:20;;;;;;;;;3.50;3.50;;;;;26.29;47.35;99128.28;3603896;39;10159;-64
2021/07/05 10:15:49;;;;;;;;;26.25;22.50;;;;;26.48;47.88;99119.19;3603951;39;10837;-69
2021/07/05 10:18:18;;;;;;;;;16.67;16.67;;;;;26.89;46.12;99112.66;3603248;39;10604;-68
2021/07/05 10:20:49;;;;;;;;;22.00;20.00;;;;;27.24;45.64;99115.13;3603020;39;10139;-67
2021/07/05 10:23:18;;;;;;;;;17.25;15.50;;;;;27.46;45.61;99101.06;3602549;39;9885;-66
2021/07/05 10:25:49;;;;;;;;;17.25;14.50;;;;;27.97;45.67;99102.97;3601973;39;9905;-66
2021/07/05 10:28:18;;;;;;;;;14.75;12.50;;;;;28.30;44.17;99101.88;3603652;39;9851;-64
2021/07/05 10:30:50;;;;;;;;;16.50;15.75;;;;;28.26;44.49;99097.91;3601358;39;9865;-68
2021/07/05 10:33:18;;;;;;;;;12.00;12.00;;;;;27.94;44.30;99100.66;3594000;39;10064;-65
2021/07/05 10:35:51;;;;;;;;;15.25;14.25;;;;;27.60;45.76;99102.72;3593547;40;9863;-65
2021/07/05 10:38:35;;;;;;;;;14.00;14.00;;;;;27.15;45.64;99100.72;3592155;40;10238;-62
2021/07/05 10:41:12;;;;;;;;;33.33;30.33;;;;;28.03;45.20;99102.06;3593068;40;9939;-62
2021/07/05 10:43:55;;;;;;;;;13.25;13.25;;;;;28.08;45.48;99087.63;3593434;40;10210;-65
2021/07/05 10:46:41;;;;;;;;;14.50;14.00;;;;;28.28;44.84;99088.31;3591612;39;9885;-65
2021/07/05 10:49:29;;;;;;;;;109.75;92.25;;;;;28.50;44.56;99086.03;3593487;40;10607;-66
2021/07/05 10:52:04;;;;;;;;;15.00;13.50;;;;;28.41;44.62;99099.25;3593353;40;14086;-63
2021/07/05 10:54:54;;;;;;;;;14.00;14.00;;;;;28.88;43.23;99099.72;3597416;39;10559;-63
2021/07/05 10:57:35;;;;;;;;;14.50;12.75;;;;;28.76;43.59;99086.88;3602768;39;9974;-62
2021/07/05 11:00:16;;;;;;;;;13.00;13.00;;;;;28.62;43.87;99084.25;3603388;39;9832;-66
2021/07/05 11:02:46;;;;;;;;;15.50;12.00;;;;;27.94;45.79;99097.91;3594930;39;9859;-65
2021/07/05 11:05:40;;;;;;;;;12.75;12.00;;;;;28.39;45.00;99095.03;3603644;39;9891;-66
2021/07/05 11:08:39;;;;;;;;;55.75;42.75;;;;;29.25;42.14;99087.84;3603634;39;10936;-69
2021/07/05 11:11:24;;;;;;;;;60.25;46.75;;;;;29.46;40.76;99084.59;3602917;39;12438;-69
2021/07/05 11:14:14;;;;;;;;;55.50;43.75;;;;;28.60;41.35;99086.38;3603407;39;13755;-67
2021/07/05 11:16:53;;;;;;;;;15.00;13.25;;;;;29.41;40.31;99091.91;3603394;39;12689;-65
2021/07/05 11:19:57;;;;;;;;;13.00;11.25;;;;;29.08;40.97;99082.09;3602639;39;9848;-71
2021/07/05 11:22:38;;;;;;;;;13.25;12.00;;;;;28.82;40.67;99084.03;3610573;39;9822;-72
2021/07/05 11:25:19;;;;;;;;;13.75;12.25;;;;;29.12;41.04;99090.78;3601136;39;10086;-65
2021/07/05 11:27:53;;;;;;;;;11.25;10.50;;;;;29.53;40.32;99090.06;3597981;39;9842;-64
2021/07/05 11:30:44;;;;;;;;;14.50;14.50;;;;;28.19;41.23;99095.16;3597579;39;9821;-64
2021/07/05 11:33:11;;;;;;;;;14.00;13.00;;;;;27.62;43.06;99086.78;3603171;39;9853;-64